createdAt,value
2018-07-20T00:01:59.672Z,17.88
2018-07-20T00:04:27.735Z,17.84
2018-07-20T00:06:55.761Z,17.81
2018-07-20T00:09:23.784Z,17.78
2018-07-20T00:11:51.816Z,17.73
2018-07-20T00:14:19.848Z,17.69
2018-07-20T00:16:47.896Z,17.65
2018-07-20T00:19:15.930Z,17.60
2018-07-20T00:21:43.979Z,17.57
2018-07-20T00:24:12.015Z,17.54
2018-07-20T00:26:40.063Z,17.53
2018-07-20T00:29:08.092Z,17.51
2018-07-20T00:31:36.217Z,17.48
2018-07-20T00:34:04.276Z,17.46
2018-07-20T00:36:32.296Z,17.44
2018-07-20T00:39:00.332Z,17.40
2018-07-20T00:41:28.364Z,17.38
2018-07-20T00:43:56.392Z,17.35
2018-07-20T00:46:24.405Z,17.31
2018-07-20T00:48:52.439Z,17.26
2018-07-20T00:51:20.515Z,17.24
2018-07-20T00:53:48.547Z,17.20
2018-07-20T00:56:16.576Z,17.17
2018-07-20T00:58:44.604Z,17.11
2018-07-20T01:01:12.655Z,17.06
2018-07-20T01:03:40.719Z,17.03
2018-07-20T01:06:08.753Z,17.01
2018-07-20T01:08:36.832Z,16.99
2018-07-20T01:11:05.057Z,16.96
2018-07-20T01:13:33.100Z,16.94
2018-07-20T01:16:01.147Z,16.91
2018-07-20T01:18:29.188Z,16.89
2018-07-20T01:20:57.223Z,16.89
2018-07-20T01:23:25.276Z,16.88
2018-07-20T01:25:53.332Z,16.88
2018-07-20T01:28:21.363Z,16.88
2018-07-20T01:30:49.402Z,16.86
2018-07-20T01:33:17.456Z,16.85
2018-07-20T01:35:45.492Z,16.82
2018-07-20T01:38:13.520Z,16.82
2018-07-20T01:40:41.567Z,16.82
2018-07-20T01:43:09.972Z,16.81
2018-07-20T01:45:38.004Z,16.79
2018-07-20T01:48:06.031Z,16.74
2018-07-20T01:50:34.072Z,16.71
2018-07-20T01:53:02.119Z,16.65
2018-07-20T01:55:30.153Z,16.62
2018-07-20T01:57:58.247Z,16.58
2018-07-20T02:00:26.330Z,16.55
2018-07-20T02:02:54.361Z,16.54
2018-07-20T02:05:22.399Z,16.51
2018-07-20T02:07:50.424Z,16.47
2018-07-20T02:10:18.468Z,16.45
2018-07-20T02:12:46.698Z,16.42
2018-07-20T02:15:14.732Z,16.39
2018-07-20T02:17:42.776Z,16.37
2018-07-20T02:20:10.865Z,16.34
2018-07-20T02:22:38.901Z,16.33
2018-07-20T02:25:06.933Z,16.32
2018-07-20T02:27:34.981Z,16.31
2018-07-20T02:30:03.025Z,16.30
2018-07-20T02:32:31.058Z,16.28
2018-07-20T02:34:59.108Z,16.24
2018-07-20T02:37:27.163Z,16.22
2018-07-20T02:39:55.189Z,16.20
2018-07-20T02:42:23.212Z,16.18
2018-07-20T02:44:51.248Z,16.17
2018-07-20T02:47:19.284Z,16.14
2018-07-20T02:49:47.332Z,16.10
2018-07-20T02:52:15.369Z,16.08
2018-07-20T02:54:43.423Z,16.06
2018-07-20T02:57:11.450Z,16.02
2018-07-20T02:59:39.512Z,15.96
2018-07-20T03:02:07.559Z,15.94
2018-07-20T03:04:35.640Z,15.93
2018-07-20T03:07:03.672Z,15.90
2018-07-20T03:09:31.731Z,15.87
2018-07-20T03:11:59.768Z,15.84
2018-07-20T03:14:27.803Z,15.81
2018-07-20T03:16:55.820Z,15.79
2018-07-20T03:19:23.866Z,15.75
2018-07-20T03:21:51.892Z,15.72
2018-07-20T03:24:19.939Z,15.71
2018-07-20T03:26:47.969Z,15.69
2018-07-20T03:29:15.992Z,15.68
2018-07-20T03:31:44.038Z,15.66
2018-07-20T03:34:12.064Z,15.66
2018-07-20T03:36:40.125Z,15.64
2018-07-20T03:39:09.171Z,15.64
2018-07-20T03:41:38.020Z,15.63
2018-07-20T03:44:06.491Z,15.60
2018-07-20T03:46:34.567Z,15.60
2018-07-20T03:49:02.617Z,15.59
2018-07-20T03:51:30.683Z,15.61
2018-07-20T03:53:58.728Z,15.61
2018-07-20T03:56:26.795Z,15.59
2018-07-20T03:58:54.876Z,15.59
2018-07-20T04:01:22.916Z,15.61
2018-07-20T04:03:50.971Z,15.61
2018-07-20T04:06:19.008Z,15.63
2018-07-20T04:08:47.040Z,15.63
2018-07-20T04:11:15.076Z,15.65
2018-07-20T04:13:43.132Z,15.65
2018-07-20T04:16:11.164Z,15.67
2018-07-20T04:18:39.209Z,15.69
2018-07-20T04:21:07.319Z,15.73
2018-07-20T04:23:35.347Z,15.74
2018-07-20T04:26:03.383Z,15.77
2018-07-20T04:28:31.408Z,15.81
2018-07-20T04:30:59.452Z,15.85
2018-07-20T04:33:27.496Z,15.89
2018-07-20T04:35:55.566Z,15.93
2018-07-20T04:38:23.583Z,16.00
2018-07-20T04:40:51.624Z,16.05
2018-07-20T04:43:19.647Z,16.11
2018-07-20T04:45:47.711Z,16.16
2018-07-20T04:48:15.744Z,16.21
2018-07-20T04:50:43.815Z,16.27
2018-07-20T04:53:11.851Z,16.31
2018-07-20T04:55:39.888Z,16.36
2018-07-20T04:58:07.908Z,16.44
2018-07-20T05:00:35.965Z,16.52
2018-07-20T05:03:04.000Z,16.59
2018-07-20T05:05:32.075Z,16.66
2018-07-20T05:08:00.096Z,16.73
2018-07-20T05:10:28.123Z,16.78
2018-07-20T05:12:56.183Z,16.84
2018-07-20T05:15:24.200Z,16.84
2018-07-20T05:17:52.243Z,16.93
2018-07-20T05:20:20.275Z,17.06
2018-07-20T05:22:48.316Z,17.19
2018-07-20T05:25:16.369Z,17.28
2018-07-20T05:27:44.409Z,17.36
2018-07-20T05:30:12.445Z,17.45
2018-07-20T05:32:40.557Z,17.53
2018-07-20T05:35:08.523Z,17.56
2018-07-20T05:37:36.564Z,17.43
2018-07-20T05:40:04.627Z,17.36
2018-07-20T05:42:32.738Z,17.36
2018-07-20T05:45:00.766Z,17.44
2018-07-20T05:47:28.799Z,17.50
2018-07-20T05:49:56.821Z,17.59
2018-07-20T05:52:24.883Z,17.60
2018-07-20T05:54:52.931Z,17.55
2018-07-20T05:57:20.972Z,17.65
2018-07-20T05:59:48.996Z,17.75
2018-07-20T06:02:17.298Z,17.83
2018-07-20T06:04:45.324Z,17.89
2018-07-20T06:07:13.379Z,18.02
2018-07-20T06:09:41.411Z,18.16
2018-07-20T06:12:09.475Z,18.31
2018-07-20T06:14:37.503Z,18.40
2018-07-20T06:17:05.622Z,18.42
2018-07-20T06:19:33.697Z,18.47
2018-07-20T06:22:01.733Z,18.57
2018-07-20T06:24:29.772Z,18.73
2018-07-20T06:26:57.806Z,18.78
2018-07-20T06:29:25.839Z,18.88
2018-07-20T06:31:53.873Z,18.94
2018-07-20T06:34:21.905Z,19.02
2018-07-20T06:36:49.944Z,19.14
2018-07-20T06:39:17.980Z,19.15
2018-07-20T06:41:46.056Z,19.14
2018-07-20T06:44:14.140Z,19.21
2018-07-20T06:46:42.171Z,19.26
2018-07-20T06:49:10.209Z,19.39
2018-07-20T06:51:38.323Z,19.46
2018-07-20T06:54:06.368Z,19.57
2018-07-20T06:56:34.476Z,19.65
2018-07-20T06:59:02.512Z,19.73
2018-07-20T07:01:30.651Z,19.83
2018-07-20T07:03:58.711Z,19.93
2018-07-20T07:06:26.844Z,20.06
2018-07-20T07:08:54.876Z,20.13
2018-07-20T07:11:22.904Z,20.17
2018-07-20T07:13:50.955Z,20.17
2018-07-20T07:16:19.012Z,20.20
2018-07-20T07:18:47.057Z,20.32
2018-07-20T07:21:15.103Z,20.49
2018-07-20T07:23:43.249Z,20.76
2018-07-20T07:26:11.212Z,20.95
2018-07-20T07:28:39.260Z,21.08
2018-07-20T07:31:07.779Z,21.27
2018-07-20T07:33:35.812Z,21.39
2018-07-20T07:36:03.868Z,21.67
2018-07-20T07:38:31.927Z,21.88
2018-07-20T07:40:59.960Z,21.86
2018-07-20T07:43:28.014Z,21.89
2018-07-20T07:45:56.080Z,21.94
2018-07-20T07:48:24.159Z,21.96
2018-07-20T07:50:52.263Z,22.03
2018-07-20T07:53:20.331Z,22.13
2018-07-20T07:55:48.392Z,22.18
2018-07-20T07:58:16.448Z,22.28
2018-07-20T08:00:44.493Z,22.40
2018-07-20T08:03:12.620Z,22.40
2018-07-20T08:05:40.595Z,22.38
2018-07-20T08:08:08.675Z,22.53
2018-07-20T08:10:36.747Z,22.60
2018-07-20T08:13:04.796Z,22.65
2018-07-20T08:15:32.859Z,22.84
2018-07-20T08:18:00.904Z,22.90
2018-07-20T08:20:28.940Z,23.05
2018-07-20T08:22:57.081Z,23.21
2018-07-20T08:25:25.051Z,23.29
2018-07-20T08:27:53.740Z,23.35
2018-07-20T08:30:21.780Z,23.39
2018-07-20T08:32:49.849Z,23.48
2018-07-20T08:35:17.931Z,23.49
2018-07-20T08:37:45.992Z,23.53
2018-07-20T08:40:14.061Z,23.59
2018-07-20T08:42:42.120Z,23.67
2018-07-20T08:45:10.175Z,23.75
2018-07-20T08:47:38.293Z,23.86
2018-07-20T08:50:06.591Z,24.00
2018-07-20T08:52:34.668Z,24.11
2018-07-20T08:55:02.716Z,24.18
2018-07-20T08:57:30.769Z,24.22
2018-07-20T08:59:58.923Z,24.47
2018-07-20T09:02:26.940Z,24.88
2018-07-20T09:04:55.000Z,25.21
2018-07-20T09:07:23.058Z,25.29
2018-07-20T09:09:51.128Z,25.49
2018-07-20T09:12:19.171Z,25.85
2018-07-20T09:14:47.245Z,26.13
2018-07-20T09:17:15.292Z,26.42
2018-07-20T09:19:43.390Z,26.70
2018-07-20T09:22:11.420Z,26.79
2018-07-20T09:24:39.503Z,26.56
2018-07-20T09:27:07.551Z,26.46
2018-07-20T09:29:35.624Z,26.59
2018-07-20T09:32:03.668Z,26.79
2018-07-20T09:34:31.808Z,26.95
2018-07-20T09:36:59.879Z,27.00
2018-07-20T09:39:27.967Z,27.16
2018-07-20T09:41:56.009Z,27.24
2018-07-20T09:44:24.100Z,27.51
2018-07-20T09:46:52.117Z,27.68
2018-07-20T09:49:20.167Z,27.89
2018-07-20T09:51:48.243Z,28.26
2018-07-20T09:54:16.299Z,28.49
2018-07-20T09:56:44.452Z,28.51
2018-07-20T09:59:12.552Z,28.62
2018-07-20T10:01:40.597Z,28.93
2018-07-20T10:04:08.667Z,29.29
2018-07-20T10:06:36.780Z,29.50
2018-07-20T10:09:08.075Z,29.59
2018-07-20T10:11:36.164Z,29.71
2018-07-20T10:14:04.204Z,29.83
2018-07-20T10:16:32.319Z,29.89
2018-07-20T10:19:00.416Z,29.78
2018-07-20T10:21:28.433Z,29.53
2018-07-20T10:23:56.503Z,29.60
2018-07-20T10:26:24.536Z,29.69
2018-07-20T10:28:52.592Z,29.88
2018-07-20T10:31:20.624Z,30.27
2018-07-20T10:33:48.681Z,30.61
2018-07-20T10:36:16.728Z,30.85
2018-07-20T10:38:44.772Z,30.88
2018-07-20T10:41:12.812Z,30.90
2018-07-20T10:43:40.883Z,31.17
2018-07-20T10:46:08.991Z,31.46
2018-07-20T10:48:37.033Z,31.49
2018-07-20T10:51:05.088Z,31.47
2018-07-20T10:53:33.155Z,31.50
2018-07-20T10:56:01.209Z,31.59
2018-07-20T10:58:29.283Z,31.71
2018-07-20T11:00:57.348Z,31.94
2018-07-20T11:03:25.393Z,32.17
2018-07-20T11:05:53.456Z,32.07
2018-07-20T11:08:21.523Z,32.07
2018-07-20T11:10:49.612Z,32.26
2018-07-20T11:13:17.652Z,32.50
2018-07-20T11:15:45.733Z,32.79
2018-07-20T11:18:13.772Z,32.89
2018-07-20T11:20:41.820Z,32.77
2018-07-20T11:23:09.924Z,32.59
2018-07-20T11:25:37.975Z,32.49
2018-07-20T11:28:06.068Z,32.35
2018-07-20T11:30:34.087Z,32.55
2018-07-20T11:33:02.131Z,32.89
2018-07-20T11:35:30.205Z,33.01
2018-07-20T11:37:58.271Z,32.81
2018-07-20T11:40:26.352Z,32.91
2018-07-20T11:42:54.448Z,32.98
2018-07-20T11:45:22.520Z,33.06
2018-07-20T11:47:50.579Z,32.94
2018-07-20T11:50:18.656Z,32.82
2018-07-20T11:52:46.732Z,32.76
2018-07-20T11:55:14.786Z,32.83
2018-07-20T11:57:42.868Z,32.99
2018-07-20T12:00:10.935Z,33.20
2018-07-20T12:02:39.004Z,33.41
2018-07-20T12:05:07.084Z,33.38
2018-07-20T12:07:35.139Z,33.52
2018-07-20T12:10:03.224Z,33.55
2018-07-20T12:12:31.285Z,33.66
2018-07-20T12:14:59.339Z,33.81
2018-07-20T12:17:27.404Z,33.75
2018-07-20T12:19:55.479Z,33.90
2018-07-20T12:22:24.313Z,33.91
2018-07-20T12:24:52.380Z,34.05
2018-07-20T12:27:20.424Z,34.01
2018-07-20T12:29:48.496Z,34.06
2018-07-20T12:32:16.580Z,34.22
2018-07-20T12:34:44.616Z,34.09
2018-07-20T12:37:12.691Z,34.09
2018-07-20T12:39:40.737Z,34.02
2018-07-20T12:42:08.783Z,34.08
2018-07-20T12:44:36.828Z,33.97
2018-07-20T12:47:04.904Z,33.79
2018-07-20T12:49:32.943Z,33.73
2018-07-20T12:52:01.001Z,33.77
2018-07-20T12:54:29.036Z,33.90
2018-07-20T12:56:57.085Z,33.94
2018-07-20T12:59:25.117Z,34.10
2018-07-20T13:01:53.193Z,34.32
2018-07-20T13:04:21.295Z,34.44
2018-07-20T13:06:49.340Z,34.53
2018-07-20T13:09:17.397Z,34.53
2018-07-20T13:11:45.550Z,34.52
2018-07-20T13:14:13.568Z,34.66
2018-07-20T13:16:42.239Z,34.82
2018-07-20T13:19:10.290Z,35.00
2018-07-20T13:21:38.391Z,34.94
2018-07-20T13:24:06.675Z,34.37
2018-07-20T13:26:34.735Z,34.08
2018-07-20T13:29:02.799Z,34.12
2018-07-20T13:31:30.863Z,34.15
2018-07-20T13:33:58.896Z,34.22
2018-07-20T13:36:26.975Z,34.23
2018-07-20T13:38:55.017Z,34.46
2018-07-20T13:41:23.068Z,34.67
2018-07-20T13:43:51.135Z,34.61
2018-07-20T13:46:19.210Z,34.41
2018-07-20T13:48:47.288Z,34.57
2018-07-20T13:51:15.361Z,34.56
2018-07-20T13:53:43.415Z,34.61
2018-07-20T13:56:11.493Z,34.78
2018-07-20T13:58:39.527Z,34.82
2018-07-20T14:01:07.590Z,34.88
2018-07-20T14:03:35.677Z,34.84
2018-07-20T14:06:03.768Z,34.81
2018-07-20T14:08:31.816Z,34.85
2018-07-20T14:10:59.867Z,34.84
2018-07-20T14:13:27.940Z,34.78
2018-07-20T14:15:55.980Z,34.82
2018-07-20T14:18:24.050Z,34.99
2018-07-20T14:20:52.131Z,35.02
2018-07-20T14:23:20.203Z,34.82
2018-07-20T14:25:48.247Z,34.77
2018-07-20T14:28:16.287Z,34.74
2018-07-20T14:30:44.422Z,34.59
2018-07-20T14:33:12.501Z,34.63
2018-07-20T14:35:40.551Z,34.54
2018-07-20T14:38:08.612Z,34.51
2018-07-20T14:40:36.668Z,34.33
2018-07-20T14:43:04.802Z,34.22
2018-07-20T14:45:32.811Z,34.27
2018-07-20T14:48:00.895Z,34.14
2018-07-20T14:50:28.940Z,33.95
2018-07-20T14:52:57.027Z,33.81
2018-07-20T14:55:25.076Z,33.79
2018-07-20T14:57:53.129Z,33.71
2018-07-20T15:00:21.188Z,33.66
2018-07-20T15:02:49.256Z,33.69
2018-07-20T15:05:17.314Z,33.77
2018-07-20T15:07:45.366Z,33.90
2018-07-20T15:10:13.426Z,34.09
2018-07-20T15:12:41.513Z,34.22
2018-07-20T15:15:09.784Z,34.32
2018-07-20T15:17:38.167Z,34.40
2018-07-20T15:20:06.316Z,34.10
2018-07-20T15:22:34.639Z,33.78
2018-07-20T15:25:02.672Z,33.83
2018-07-20T15:27:30.780Z,33.76
2018-07-20T15:29:58.823Z,33.62
2018-07-20T15:32:26.864Z,33.41
2018-07-20T15:34:54.924Z,33.40
2018-07-20T15:37:22.975Z,33.40
2018-07-20T15:39:51.085Z,33.42
2018-07-20T15:42:19.104Z,33.41
2018-07-20T15:44:47.220Z,33.30
2018-07-20T15:47:15.344Z,33.20
2018-07-20T15:49:43.337Z,33.06
2018-07-20T15:54:39.449Z,32.92
2018-07-20T15:57:07.636Z,32.77
2018-07-20T15:59:35.725Z,32.50
2018-07-20T16:02:04.029Z,32.26
2018-07-20T16:04:32.116Z,32.02
2018-07-20T16:07:00.231Z,31.87
2018-07-20T16:09:28.324Z,31.85
2018-07-20T16:11:56.379Z,31.83
2018-07-20T16:14:24.424Z,31.74
2018-07-20T16:16:52.468Z,31.61
2018-07-20T16:19:20.530Z,31.51
2018-07-20T16:21:48.572Z,31.42
2018-07-20T16:24:16.629Z,31.39
2018-07-20T16:26:44.692Z,31.42
2018-07-20T16:29:12.747Z,31.44
2018-07-20T16:31:40.788Z,31.46
2018-07-20T16:34:08.876Z,31.39
2018-07-20T16:36:36.939Z,31.36
2018-07-20T16:39:07.532Z,31.32
2018-07-20T16:41:35.571Z,31.16
2018-07-20T16:44:03.628Z,31.03
2018-07-20T16:46:31.676Z,30.89
2018-07-20T16:48:59.737Z,30.89
2018-07-20T16:51:27.836Z,30.88
2018-07-20T16:53:55.887Z,30.90
2018-07-20T16:56:23.939Z,30.92
2018-07-20T16:58:51.996Z,30.92
2018-07-20T17:01:20.060Z,30.80
2018-07-20T17:03:48.117Z,30.73
2018-07-20T17:06:16.172Z,30.67
2018-07-20T17:08:44.224Z,30.53
2018-07-20T17:11:12.265Z,30.33
2018-07-20T17:13:40.331Z,30.32
2018-07-20T17:16:08.371Z,30.36
2018-07-20T17:18:36.423Z,30.33
2018-07-20T17:21:04.476Z,30.32
2018-07-20T17:23:32.524Z,30.26
2018-07-20T17:26:00.676Z,30.23
2018-07-20T17:28:28.716Z,30.15
2018-07-20T17:30:56.764Z,30.12
2018-07-20T17:33:24.875Z,30.14
2018-07-20T17:35:52.937Z,30.09
2018-07-20T17:38:20.989Z,29.95
2018-07-20T17:40:49.067Z,29.87
2018-07-20T17:43:17.116Z,29.80
2018-07-20T17:45:45.215Z,29.78
2018-07-20T17:48:13.267Z,29.76
2018-07-20T17:50:41.349Z,29.75
2018-07-20T17:53:09.395Z,29.74
2018-07-20T17:55:37.487Z,29.76
2018-07-20T17:58:05.531Z,29.76
2018-07-20T18:00:33.608Z,29.75
2018-07-20T18:03:01.695Z,29.70
2018-07-20T18:05:30.096Z,29.69
2018-07-20T18:07:58.159Z,29.66
2018-07-20T18:10:26.226Z,29.62
2018-07-20T18:12:54.252Z,29.55
2018-07-20T18:15:22.380Z,29.49
2018-07-20T18:17:50.459Z,29.42
2018-07-20T18:20:18.484Z,29.32
2018-07-20T18:22:46.559Z,29.21
2018-07-20T18:25:15.479Z,29.14
2018-07-20T18:27:43.538Z,29.07
2018-07-20T18:30:11.591Z,28.98
2018-07-20T18:32:39.662Z,28.89
2018-07-20T18:35:07.716Z,28.78
2018-07-20T18:37:35.755Z,28.67
2018-07-20T18:40:03.820Z,28.57
2018-07-20T18:42:31.854Z,28.46
2018-07-20T18:44:59.904Z,28.39
2018-07-20T18:47:27.963Z,28.29
2018-07-20T18:49:56.019Z,28.17
2018-07-20T18:52:24.079Z,28.03
2018-07-20T18:54:52.115Z,27.90
2018-07-20T18:57:20.144Z,27.79
2018-07-20T18:59:48.220Z,27.67
2018-07-20T19:02:16.228Z,27.50
2018-07-20T19:04:44.286Z,27.37
2018-07-20T19:07:12.342Z,27.18
2018-07-20T19:09:40.400Z,26.91
2018-07-20T19:12:08.444Z,26.81
2018-07-20T19:14:36.492Z,26.75
2018-07-20T19:17:04.582Z,26.58
2018-07-20T19:19:32.604Z,26.43
2018-07-20T19:22:00.636Z,26.29
2018-07-20T19:24:28.712Z,26.21
2018-07-20T19:26:56.784Z,26.15
2018-07-20T19:29:24.825Z,26.08
2018-07-20T19:31:52.887Z,26.01
2018-07-20T19:34:20.980Z,25.95
2018-07-20T19:36:48.968Z,25.94
2018-07-20T19:39:17.008Z,25.91
2018-07-20T19:41:45.073Z,25.83
2018-07-20T19:44:13.112Z,25.77
2018-07-20T19:46:41.178Z,25.71
2018-07-20T19:49:09.256Z,25.61
2018-07-20T19:51:37.309Z,25.53
2018-07-20T19:54:05.512Z,25.51
2018-07-20T19:56:33.584Z,25.48
2018-07-20T19:59:01.648Z,25.45
2018-07-20T20:01:29.704Z,25.41
2018-07-20T20:03:57.776Z,25.37
2018-07-20T20:06:25.824Z,25.32
2018-07-20T20:08:53.863Z,25.27
2018-07-20T20:11:21.951Z,25.19
2018-07-20T20:13:50.020Z,25.13
2018-07-20T20:16:18.100Z,25.14
2018-07-20T20:18:46.150Z,25.14
2018-07-20T20:21:14.251Z,25.13
2018-07-20T20:23:42.311Z,25.10
2018-07-20T20:26:10.368Z,25.05
2018-07-20T20:28:38.427Z,25.01
2018-07-20T20:31:06.542Z,24.97
2018-07-20T20:33:34.580Z,24.92
2018-07-20T20:36:02.671Z,24.83
2018-07-20T20:38:30.704Z,24.75
2018-07-20T20:40:58.784Z,24.68
2018-07-20T20:43:26.992Z,24.62
2018-07-20T20:45:55.079Z,24.57
2018-07-20T20:48:23.128Z,24.50
2018-07-20T20:50:51.215Z,24.43
2018-07-20T20:53:19.232Z,24.36
2018-07-20T20:55:47.271Z,24.29
2018-07-20T20:58:15.320Z,24.20
2018-07-20T21:00:43.380Z,24.10
2018-07-20T21:03:11.441Z,24.06
2018-07-20T21:05:39.492Z,24.00
2018-07-20T21:08:07.524Z,23.96
2018-07-20T21:10:35.577Z,23.93
2018-07-20T21:13:04.437Z,23.88
2018-07-20T21:15:32.503Z,23.82
2018-07-20T21:18:00.545Z,23.74
2018-07-20T21:20:28.624Z,23.66
2018-07-20T21:22:56.692Z,23.58
2018-07-20T21:25:24.793Z,23.45
2018-07-20T21:27:52.836Z,23.43
2018-07-20T21:30:20.868Z,23.32
2018-07-20T21:32:48.944Z,23.23
2018-07-20T21:35:16.980Z,23.13
2018-07-20T21:37:45.053Z,23.04
2018-07-20T21:40:13.118Z,22.96
2018-07-20T21:42:41.184Z,22.85
2018-07-20T21:45:09.219Z,22.81
2018-07-20T21:47:37.259Z,22.72
2018-07-20T21:50:05.319Z,22.64
2018-07-20T21:52:33.380Z,22.55
2018-07-20T21:55:01.645Z,22.47
2018-07-20T21:57:29.751Z,22.38
2018-07-20T21:59:57.787Z,22.29
2018-07-20T22:02:25.842Z,22.23
2018-07-20T22:04:53.949Z,22.18
2018-07-20T22:07:21.992Z,22.14
2018-07-20T22:09:50.024Z,22.14
2018-07-20T22:12:18.132Z,22.11
2018-07-20T22:14:46.167Z,22.06
2018-07-20T22:17:14.236Z,22.01
2018-07-20T22:19:42.280Z,21.96
2018-07-20T22:22:10.327Z,21.93
2018-07-20T22:24:38.396Z,21.88
2018-07-20T22:27:06.435Z,21.85
2018-07-20T22:29:34.499Z,21.81
2018-07-20T22:32:02.540Z,21.77
2018-07-20T22:34:30.576Z,21.71
2018-07-20T22:36:58.639Z,21.63
2018-07-20T22:39:26.676Z,21.58
2018-07-20T22:41:54.739Z,21.52
2018-07-20T22:44:22.804Z,21.49
2018-07-20T22:46:50.871Z,21.41
2018-07-20T22:49:18.903Z,21.37
2018-07-20T22:51:46.959Z,21.30
2018-07-20T22:54:15.008Z,21.21
2018-07-20T22:56:43.052Z,21.14
2018-07-20T22:59:11.127Z,21.07
2018-07-20T23:01:39.199Z,20.98
2018-07-20T23:04:07.244Z,20.88
2018-07-20T23:06:35.300Z,20.80
2018-07-20T23:09:03.960Z,20.73
2018-07-20T23:11:31.991Z,20.63
2018-07-20T23:14:00.037Z,20.56
2018-07-20T23:16:28.068Z,20.50
2018-07-20T23:18:56.113Z,20.43
2018-07-20T23:21:24.169Z,20.39
2018-07-20T23:23:52.212Z,20.36
2018-07-20T23:26:20.243Z,20.33
2018-07-20T23:28:48.285Z,20.27
2018-07-20T23:31:16.320Z,20.21
2018-07-20T23:33:44.362Z,20.14
2018-07-20T23:36:12.407Z,20.07
2018-07-20T23:38:40.476Z,20.01
2018-07-20T23:41:08.508Z,19.95
2018-07-20T23:43:36.555Z,19.91
2018-07-20T23:46:04.585Z,19.88
2018-07-20T23:48:32.636Z,19.86
2018-07-20T23:51:00.728Z,19.80
2018-07-20T23:53:28.760Z,19.73
2018-07-20T23:55:56.823Z,19.66
2018-07-20T23:58:24.868Z,19.61
